createdAt,value
2022-12-08T00:01:23.331Z,-0.36
2022-12-08T00:03:50.840Z,-0.42
2022-12-08T00:06:51.167Z,-0.47
2022-12-08T00:09:24.050Z,-0.49
2022-12-08T00:11:59.727Z,-0.56
2022-12-08T00:14:32.407Z,-0.57
2022-12-08T00:17:00.049Z,-0.66
2022-12-08T00:19:27.543Z,-0.70
2022-12-08T00:21:54.309Z,-0.72
2022-12-08T00:24:21.692Z,-0.83
2022-12-08T00:26:48.732Z,-0.82
2022-12-08T00:29:17.559Z,-0.90
2022-12-08T00:31:44.553Z,-0.85
2022-12-08T00:34:12.569Z,-0.93
2022-12-08T00:36:38.995Z,-1.11
2022-12-08T00:39:06.040Z,-1.08
2022-12-08T00:41:51.042Z,-1.12
2022-12-08T00:44:21.529Z,-1.05
2022-12-08T00:46:48.585Z,-1.13
2022-12-08T00:49:15.689Z,-1.00
2022-12-08T00:51:42.683Z,-1.14
2022-12-08T00:54:09.569Z,-1.24
2022-12-08T00:56:36.363Z,-1.24
2022-12-08T00:59:04.871Z,-1.35
2022-12-08T01:01:31.512Z,-1.24
2022-12-08T01:03:58.158Z,-1.34
2022-12-08T01:06:24.589Z,-1.39
2022-12-08T01:08:51.048Z,-1.43
2022-12-08T01:11:19.150Z,-1.47
2022-12-08T01:13:47.348Z,-1.50
2022-12-08T01:16:26.529Z,-1.58
2022-12-08T01:18:53.387Z,-1.57
2022-12-08T01:21:21.834Z,-1.50
2022-12-08T01:23:48.319Z,-1.66
2022-12-08T01:26:17.813Z,-1.63
2022-12-08T01:28:45.064Z,-1.71
2022-12-08T01:31:22.042Z,-1.66
2022-12-08T01:33:48.832Z,-1.63
2022-12-08T01:36:21.920Z,-1.70
2022-12-08T01:38:48.860Z,-1.66
2022-12-08T01:41:17.633Z,-1.72
2022-12-08T01:44:08.191Z,-1.70
2022-12-08T01:46:36.471Z,-1.75
2022-12-08T01:49:08.860Z,-1.83
2022-12-08T01:51:42.841Z,-1.84
2022-12-08T01:54:10.320Z,-1.85
2022-12-08T01:56:55.430Z,-1.87
2022-12-08T01:59:23.432Z,-1.89
2022-12-08T02:01:51.118Z,-1.86
2022-12-08T02:04:18.023Z,-1.85
2022-12-08T02:06:46.678Z,-1.87
2022-12-08T02:09:14.788Z,-1.85
2022-12-08T02:11:41.193Z,-1.89
2022-12-08T02:14:11.008Z,-1.97
2022-12-08T02:16:45.363Z,-2.11
2022-12-08T02:19:42.522Z,-2.15
2022-12-08T02:22:11.956Z,-2.23
2022-12-08T02:25:02.575Z,-2.27
2022-12-08T02:27:31.662Z,-2.19
2022-12-08T02:30:10.955Z,-2.20
2022-12-08T02:33:12.984Z,-2.20
2022-12-08T02:35:45.517Z,-2.22
2022-12-08T02:39:06.393Z,-2.34
2022-12-08T02:41:39.501Z,-2.47
2022-12-08T02:44:16.928Z,-2.37
2022-12-08T02:46:52.015Z,-2.39
2022-12-08T02:49:18.448Z,-2.35
2022-12-08T02:51:44.922Z,-2.35
2022-12-08T02:54:11.627Z,-2.27
2022-12-08T02:57:08.946Z,-2.28
2022-12-08T03:00:02.568Z,-2.28
2022-12-08T03:02:48.328Z,-2.31
2022-12-08T03:05:49.120Z,-2.26
2022-12-08T03:08:33.049Z,-2.22
2022-12-08T03:11:20.303Z,-2.21
2022-12-08T03:13:51.590Z,-2.19
2022-12-08T03:16:24.391Z,-2.16
2022-12-08T03:19:34.723Z,-2.14
2022-12-08T03:22:04.830Z,-2.13
2022-12-08T03:24:34.828Z,-2.11
2022-12-08T03:27:06.939Z,-2.09
2022-12-08T03:29:33.869Z,-2.04
2022-12-08T03:32:09.062Z,-2.04
2022-12-08T03:34:36.862Z,-2.05
2022-12-08T03:37:03.867Z,-1.94
2022-12-08T03:39:30.439Z,-1.93
2022-12-08T03:41:56.738Z,-1.89
2022-12-08T03:44:23.173Z,-1.95
2022-12-08T03:46:49.611Z,-1.98
2022-12-08T03:49:16.016Z,-1.93
2022-12-08T03:51:42.498Z,-1.87
2022-12-08T03:54:09.013Z,-1.91
2022-12-08T03:56:38.236Z,-1.82
2022-12-08T03:59:05.662Z,-1.85
2022-12-08T04:01:32.165Z,-1.89
2022-12-08T04:03:58.810Z,-1.83
2022-12-08T04:06:25.746Z,-1.83
2022-12-08T04:08:53.557Z,-1.78
2022-12-08T04:11:20.348Z,-1.86
2022-12-08T04:13:47.004Z,-1.88
2022-12-08T04:16:24.412Z,-1.90
2022-12-08T04:18:51.351Z,-1.98
2022-12-08T04:21:17.948Z,-2.00
2022-12-08T04:23:44.700Z,-2.01
2022-12-08T04:26:11.567Z,-2.02
2022-12-08T04:28:38.615Z,-2.09
2022-12-08T04:31:05.757Z,-2.09
2022-12-08T04:33:32.604Z,-2.10
2022-12-08T04:35:59.085Z,-2.10
2022-12-08T04:38:25.512Z,-2.12
2022-12-08T04:40:51.984Z,-2.21
2022-12-08T04:43:18.546Z,-2.07
2022-12-08T04:45:44.882Z,-2.16
2022-12-08T04:48:14.850Z,-2.26
2022-12-08T04:50:42.993Z,-2.26
2022-12-08T04:53:10.595Z,-2.29
2022-12-08T04:55:42.008Z,-2.20
2022-12-08T04:58:12.336Z,-2.26
2022-12-08T05:00:38.816Z,-2.24
2022-12-08T05:03:05.396Z,-2.32
2022-12-08T05:05:31.968Z,-2.39
2022-12-08T05:07:58.410Z,-2.43
2022-12-08T05:10:24.917Z,-2.38
2022-12-08T05:12:51.388Z,-2.38
2022-12-08T05:15:17.777Z,-2.40
2022-12-08T05:17:44.288Z,-2.44
2022-12-08T05:20:10.997Z,-2.41
2022-12-08T05:22:37.417Z,-2.38
2022-12-08T05:25:04.092Z,-2.41
2022-12-08T05:27:30.469Z,-2.33
2022-12-08T05:29:56.884Z,-2.38
2022-12-08T05:32:23.294Z,-2.32
2022-12-08T05:34:49.785Z,-2.30
2022-12-08T05:37:16.176Z,-2.34
2022-12-08T05:39:42.603Z,-2.32
2022-12-08T05:42:09.113Z,-2.38
2022-12-08T05:44:35.633Z,-2.32
2022-12-08T05:47:02.121Z,-2.34
2022-12-08T05:49:28.604Z,-2.35
2022-12-08T05:51:55.024Z,-2.31
2022-12-08T05:54:23.992Z,-2.37
2022-12-08T05:56:50.396Z,-2.32
2022-12-08T05:59:16.812Z,-2.31
2022-12-08T06:01:43.263Z,-2.32
2022-12-08T06:04:10.142Z,-2.26
2022-12-08T06:06:36.615Z,-2.25
2022-12-08T06:09:04.275Z,-2.28
2022-12-08T06:11:32.148Z,-2.25
2022-12-08T06:13:59.077Z,-2.30
2022-12-08T06:16:27.340Z,-2.31
2022-12-08T06:18:54.217Z,-2.31
2022-12-08T06:21:21.017Z,-2.16
2022-12-08T06:23:49.820Z,-2.22
2022-12-08T06:26:17.198Z,-2.21
2022-12-08T06:28:44.070Z,-2.21
2022-12-08T06:31:23.271Z,-2.13
2022-12-08T06:33:50.373Z,-2.14
2022-12-08T06:36:18.789Z,-2.12
2022-12-08T06:38:45.373Z,-2.08
2022-12-08T06:41:12.673Z,-2.09
2022-12-08T06:43:39.368Z,-2.09
2022-12-08T06:46:08.123Z,-2.07
2022-12-08T06:48:34.719Z,-2.08
2022-12-08T06:51:08.328Z,-2.14
2022-12-08T06:53:34.827Z,-2.09
2022-12-08T06:56:01.240Z,-2.16
2022-12-08T06:58:27.663Z,-2.11
2022-12-08T07:00:54.228Z,-2.10
2022-12-08T07:03:21.107Z,-2.10
2022-12-08T07:05:47.618Z,-2.13
2022-12-08T07:08:14.148Z,-2.10
2022-12-08T07:10:40.623Z,-2.06
2022-12-08T07:13:07.113Z,-2.02
2022-12-08T07:15:33.525Z,-1.94
2022-12-08T07:18:00.594Z,-1.95
2022-12-08T07:20:27.868Z,-1.90
2022-12-08T07:22:54.782Z,-1.91
2022-12-08T07:25:21.246Z,-1.91
2022-12-08T07:27:48.133Z,-1.88
2022-12-08T07:30:14.969Z,-1.91
2022-12-08T07:32:41.561Z,-1.87
2022-12-08T07:35:08.305Z,-1.76
2022-12-08T07:37:35.890Z,-1.82
2022-12-08T07:40:03.594Z,-1.73
2022-12-08T07:42:30.246Z,-1.72
2022-12-08T07:44:56.698Z,-1.71
2022-12-08T07:47:23.362Z,-1.61
2022-12-08T07:49:49.849Z,-1.60
2022-12-08T07:52:16.572Z,-1.54
2022-12-08T07:54:42.971Z,-1.49
2022-12-08T07:57:09.945Z,-1.49
2022-12-08T07:59:36.730Z,-1.47
2022-12-08T08:02:22.909Z,-1.40
2022-12-08T08:04:50.704Z,-1.28
2022-12-08T08:07:17.489Z,-1.27
2022-12-08T08:09:43.941Z,-1.28
2022-12-08T08:12:30.328Z,-1.27
2022-12-08T08:14:56.776Z,-1.25
2022-12-08T08:17:23.299Z,-1.16
2022-12-08T08:19:50.681Z,-1.07
2022-12-08T08:22:17.161Z,-1.09
2022-12-08T08:24:45.188Z,-1.07
2022-12-08T08:27:12.176Z,-0.98
2022-12-08T08:29:38.666Z,-0.91
2022-12-08T08:32:05.674Z,-0.90
2022-12-08T08:34:32.150Z,-0.75
2022-12-08T08:36:58.855Z,-0.72
2022-12-08T08:39:25.306Z,-0.70
2022-12-08T08:41:52.136Z,-0.53
2022-12-08T08:44:18.796Z,-0.51
2022-12-08T08:46:45.439Z,-0.54
2022-12-08T08:49:11.854Z,-0.54
2022-12-08T08:51:38.676Z,-0.53
2022-12-08T08:54:05.126Z,-0.34
2022-12-08T08:56:31.569Z,-0.33
2022-12-08T08:58:58.204Z,-0.33
2022-12-08T09:01:27.462Z,-0.22
2022-12-08T09:03:55.185Z,-0.17
2022-12-08T09:06:22.094Z,-0.27
2022-12-08T09:08:49.552Z,-0.21
2022-12-08T09:11:18.394Z,-0.23
2022-12-08T09:13:47.435Z,-0.12
2022-12-08T09:16:13.928Z,0.01
2022-12-08T09:18:40.348Z,0.12
2022-12-08T09:21:09.031Z,0.25
2022-12-08T09:23:36.082Z,0.35
2022-12-08T09:26:04.921Z,0.51
2022-12-08T09:28:32.145Z,0.71
2022-12-08T09:30:58.729Z,0.88
2022-12-08T09:33:25.114Z,1.02
2022-12-08T09:35:51.502Z,1.07
2022-12-08T09:38:17.993Z,1.17
2022-12-08T09:40:52.076Z,1.36
2022-12-08T09:43:59.394Z,1.55
2022-12-08T09:46:30.379Z,1.52
2022-12-08T09:48:59.029Z,1.51
2022-12-08T09:51:29.037Z,1.67
2022-12-08T09:54:01.173Z,1.70
2022-12-08T09:56:33.667Z,1.74
2022-12-08T09:59:04.164Z,1.76
2022-12-08T10:01:38.196Z,1.77
2022-12-08T10:04:13.672Z,1.74
2022-12-08T10:06:46.672Z,1.75
2022-12-08T10:09:51.091Z,1.66
2022-12-08T10:12:26.737Z,1.82
2022-12-08T10:15:11.881Z,1.95
2022-12-08T10:17:45.223Z,1.91
2022-12-08T10:20:23.648Z,2.20
2022-12-08T10:23:14.011Z,3.09
2022-12-08T10:25:50.073Z,3.86
2022-12-08T10:28:16.563Z,4.56
2022-12-08T10:30:43.574Z,4.99
2022-12-08T10:33:15.696Z,5.30
2022-12-08T10:35:46.611Z,5.21
2022-12-08T10:38:22.471Z,4.76
2022-12-08T10:40:51.753Z,4.64
2022-12-08T10:43:22.708Z,4.40
2022-12-08T10:45:49.480Z,4.62
2022-12-08T10:48:19.637Z,4.45
2022-12-08T10:50:50.412Z,4.36
2022-12-08T10:53:23.306Z,4.17
2022-12-08T10:56:06.473Z,3.89
2022-12-08T10:58:40.623Z,3.75
2022-12-08T11:01:10.142Z,3.60
2022-12-08T11:03:46.249Z,3.53
2022-12-08T11:06:19.684Z,3.97
2022-12-08T11:09:01.266Z,3.94
2022-12-08T11:11:47.167Z,4.00
2022-12-08T11:14:25.556Z,4.25
2022-12-08T11:16:55.122Z,3.43
2022-12-08T11:19:27.676Z,3.51
2022-12-08T11:21:54.649Z,2.79
2022-12-08T11:24:28.115Z,2.48
2022-12-08T11:27:02.501Z,2.62
2022-12-08T11:29:34.240Z,2.01
2022-12-08T11:32:04.448Z,2.01
2022-12-08T11:34:40.552Z,1.98
2022-12-08T11:37:15.010Z,2.10
2022-12-08T11:39:48.304Z,2.02
2022-12-08T11:42:18.593Z,1.99
2022-12-08T11:44:53.413Z,1.86
2022-12-08T11:47:34.204Z,1.86
2022-12-08T11:50:22.445Z,1.94
2022-12-08T11:52:51.256Z,1.76
2022-12-08T11:55:35.280Z,1.69
2022-12-08T11:58:18.027Z,1.67
2022-12-08T12:00:44.742Z,1.78
2022-12-08T12:03:20.675Z,2.45
2022-12-08T12:06:13.618Z,3.48
2022-12-08T12:09:33.044Z,4.06
2022-12-08T12:12:15.747Z,4.32
2022-12-08T12:15:00.142Z,4.40
2022-12-08T12:17:41.603Z,4.08
2022-12-08T12:20:15.154Z,3.48
2022-12-08T12:22:44.615Z,3.46
2022-12-08T12:25:20.592Z,3.24
2022-12-08T12:27:49.301Z,3.19
2022-12-08T12:30:25.197Z,3.56
2022-12-08T12:32:56.453Z,3.68
2022-12-08T12:35:33.543Z,4.00
2022-12-08T12:38:30.583Z,3.95
2022-12-08T12:41:01.555Z,3.63
2022-12-08T12:43:35.699Z,3.40
2022-12-08T12:46:23.976Z,3.77
2022-12-08T12:48:51.587Z,4.13
2022-12-08T12:51:45.412Z,4.35
2022-12-08T12:54:26.704Z,4.15
2022-12-08T12:57:22.437Z,3.65
2022-12-08T12:59:56.099Z,3.61
2022-12-08T13:02:30.526Z,3.86
2022-12-08T13:05:23.226Z,4.13
2022-12-08T13:07:57.586Z,3.83
2022-12-08T13:10:27.626Z,3.75
2022-12-08T13:13:12.607Z,3.86
2022-12-08T13:15:46.575Z,3.72
2022-12-08T13:18:21.802Z,3.28
2022-12-08T13:20:53.344Z,3.46
2022-12-08T13:23:47.543Z,3.58
2022-12-08T13:26:20.524Z,4.03
2022-12-08T13:28:58.713Z,3.71
2022-12-08T13:31:55.881Z,3.75
2022-12-08T13:34:41.583Z,3.63
2022-12-08T13:37:11.070Z,3.94
2022-12-08T13:39:40.467Z,3.53
2022-12-08T13:42:12.890Z,3.15
2022-12-08T13:59:33.716Z,3.20
2022-12-08T14:02:29.947Z,3.16
2022-12-08T14:07:43.988Z,3.00
2022-12-08T14:10:18.655Z,3.22
2022-12-08T14:12:47.941Z,2.85
2022-12-08T14:15:15.642Z,2.58
2022-12-08T14:17:51.165Z,2.60
2022-12-08T14:20:29.478Z,2.62
2022-12-08T14:22:56.539Z,2.67
2022-12-08T14:25:24.247Z,2.64
2022-12-08T14:27:58.899Z,2.64
2022-12-08T14:30:31.712Z,2.72
2022-12-08T14:33:03.843Z,2.78
2022-12-08T14:35:34.292Z,2.76
2022-12-08T14:38:20.424Z,2.65
2022-12-08T14:40:49.302Z,2.56
2022-12-08T14:43:18.714Z,2.49
2022-12-08T14:45:48.190Z,2.44
2022-12-08T14:48:39.016Z,2.35
2022-12-08T14:51:21.318Z,2.64
2022-12-08T14:53:54.559Z,2.40
2022-12-08T14:56:36.138Z,2.31
2022-12-08T14:59:03.146Z,2.17
2022-12-08T15:01:30.256Z,2.16
2022-12-08T15:04:16.483Z,2.05
2022-12-08T15:07:00.858Z,2.19
2022-12-08T15:09:36.021Z,2.05
2022-12-08T15:12:13.668Z,2.02
2022-12-08T15:14:43.096Z,1.88
2022-12-08T15:17:47.907Z,1.83
2022-12-08T15:20:33.370Z,1.76
2022-12-08T15:23:02.475Z,1.69
2022-12-08T15:25:28.994Z,1.61
2022-12-08T15:27:56.990Z,1.56
2022-12-08T15:30:26.220Z,1.51
2022-12-08T15:32:54.098Z,1.49
2022-12-08T15:35:21.225Z,1.32
2022-12-08T15:37:47.736Z,1.24
2022-12-08T15:40:20.010Z,1.18
2022-12-08T15:42:46.780Z,1.07
2022-12-08T15:45:14.495Z,1.06
2022-12-08T15:47:42.784Z,0.94
2022-12-08T15:50:18.034Z,0.93
2022-12-08T15:52:44.791Z,0.86
2022-12-08T15:55:21.323Z,0.62
2022-12-08T15:58:45.036Z,0.47
2022-12-08T16:00:56.288Z,0.12
2022-12-08T16:04:13.763Z,0.30
2022-12-08T16:09:22.053Z,0.32
2022-12-08T16:12:09.803Z,0.17
2022-12-08T16:17:24.579Z,-0.09
2022-12-08T16:19:51.150Z,-0.19
2022-12-08T16:25:21.814Z,-0.32
2022-12-08T16:28:02.823Z,-0.36
2022-12-08T16:30:29.859Z,-0.35
2022-12-08T16:32:56.268Z,-0.39
2022-12-08T16:35:22.830Z,-0.43
2022-12-08T16:37:49.293Z,-0.28
2022-12-08T16:40:15.779Z,-0.46
2022-12-08T16:42:46.361Z,-0.65
2022-12-08T16:45:14.473Z,-0.65
2022-12-08T16:47:43.535Z,-0.75
2022-12-08T16:50:14.992Z,-0.83
2022-12-08T16:52:42.599Z,-0.85
2022-12-08T16:55:11.343Z,-0.90
2022-12-08T16:57:37.832Z,-0.93
2022-12-08T17:00:09.054Z,-0.97
2022-12-08T17:02:35.641Z,-1.06
2022-12-08T17:05:02.411Z,-1.09
2022-12-08T17:07:28.891Z,-1.11
2022-12-08T17:09:55.338Z,-1.17
2022-12-08T17:12:22.274Z,-1.15
2022-12-08T17:14:48.700Z,-1.17
2022-12-08T17:17:15.227Z,-1.19
2022-12-08T17:19:41.596Z,-1.30
2022-12-08T17:22:08.137Z,-1.24
2022-12-08T17:24:34.616Z,-1.35
2022-12-08T17:27:04.034Z,-1.38
2022-12-08T17:29:31.662Z,-1.39
2022-12-08T17:31:58.767Z,-1.30
2022-12-08T17:34:25.300Z,-1.40
2022-12-08T17:36:51.959Z,-1.45
2022-12-08T17:39:19.293Z,-1.42
2022-12-08T17:41:46.878Z,-1.51
2022-12-08T17:44:16.665Z,-1.62
2022-12-08T17:46:49.143Z,-1.64
2022-12-08T17:49:24.600Z,-1.60
2022-12-08T17:51:53.578Z,-1.61
2022-12-08T17:54:20.522Z,-1.63
2022-12-08T17:56:47.244Z,-1.69
2022-12-08T17:59:15.092Z,-1.64
2022-12-08T18:01:41.755Z,-1.70
2022-12-08T18:04:09.102Z,-1.75
2022-12-08T18:06:36.953Z,-1.79
2022-12-08T18:09:06.628Z,-1.83
2022-12-08T18:11:34.280Z,-1.80
2022-12-08T18:14:09.205Z,-1.83
2022-12-08T18:16:38.454Z,-1.83
2022-12-08T18:19:05.864Z,-1.88
2022-12-08T18:21:32.620Z,-1.95
2022-12-08T18:23:59.141Z,-1.97
2022-12-08T18:26:25.591Z,-1.95
2022-12-08T18:28:51.992Z,-1.98
2022-12-08T18:31:21.537Z,-2.04
2022-12-08T18:33:50.770Z,-2.04
2022-12-08T18:36:20.618Z,-2.02
2022-12-08T18:38:47.292Z,-2.07
2022-12-08T18:41:19.323Z,-2.07
2022-12-08T18:43:46.150Z,-2.09
2022-12-08T18:46:14.221Z,-2.10
2022-12-08T18:48:43.911Z,-2.13
2022-12-08T18:51:16.151Z,-2.13
2022-12-08T18:53:43.492Z,-2.16
2022-12-08T18:56:30.466Z,-2.16
2022-12-08T18:59:03.256Z,-2.15
2022-12-08T19:01:32.530Z,-2.22
2022-12-08T19:06:46.775Z,-2.17
2022-12-08T19:09:14.084Z,-2.13
2022-12-08T19:11:41.425Z,-2.15
2022-12-08T19:14:08.233Z,-2.23
2022-12-08T19:16:35.481Z,-2.22
2022-12-08T19:19:02.135Z,-2.20
2022-12-08T19:21:28.769Z,-2.26
2022-12-08T19:23:58.297Z,-2.23
2022-12-08T19:26:26.964Z,-2.27
2022-12-08T19:28:53.654Z,-2.28
2022-12-08T19:31:20.510Z,-2.28
2022-12-08T19:33:47.189Z,-2.29
2022-12-08T19:36:18.232Z,-2.28
2022-12-08T19:39:03.922Z,-2.28
2022-12-08T19:41:49.285Z,-2.32
2022-12-08T19:44:48.237Z,-2.31
2022-12-08T19:47:15.218Z,-2.40
2022-12-08T19:49:41.797Z,-2.40
2022-12-08T19:52:08.305Z,-2.29
2022-12-08T19:54:35.328Z,-2.37
2022-12-08T19:57:02.022Z,-2.36
2022-12-08T19:59:30.122Z,-2.34
2022-12-08T20:01:58.665Z,-2.32
2022-12-08T20:04:27.282Z,-2.38
2022-12-08T20:06:55.549Z,-2.31
2022-12-08T20:09:22.780Z,-2.38
2022-12-08T20:11:50.775Z,-2.32
2022-12-08T20:14:21.591Z,-2.38
2022-12-08T20:16:48.676Z,-2.39
2022-12-08T20:19:15.357Z,-2.44
2022-12-08T20:21:41.840Z,-2.43
2022-12-08T20:24:08.380Z,-2.50
2022-12-08T20:26:35.072Z,-2.43
2022-12-08T20:29:01.688Z,-2.47
2022-12-08T20:31:28.902Z,-2.38
2022-12-08T20:33:55.978Z,-2.50
2022-12-08T20:36:22.741Z,-2.48
2022-12-08T20:38:51.216Z,-2.58
2022-12-08T20:41:18.867Z,-2.57
2022-12-08T20:43:47.072Z,-2.59
2022-12-08T20:46:15.596Z,-2.62
2022-12-08T20:48:42.923Z,-2.65
2022-12-08T20:51:13.174Z,-2.63
2022-12-08T20:53:39.967Z,-2.70
2022-12-08T20:56:06.659Z,-2.70
2022-12-08T20:58:33.296Z,-2.68
2022-12-08T21:00:59.958Z,-2.58
2022-12-08T21:03:26.881Z,-2.69
2022-12-08T21:05:53.613Z,-2.71
2022-12-08T21:08:20.419Z,-2.70
2022-12-08T21:10:53.816Z,-2.63
2022-12-08T21:13:20.868Z,-2.69
2022-12-08T21:15:47.872Z,-2.70
2022-12-08T21:18:16.910Z,-2.67
2022-12-08T21:20:44.103Z,-2.70
2022-12-08T21:23:11.735Z,-2.72
2022-12-08T21:25:43.637Z,-2.73
2022-12-08T21:28:10.855Z,-2.65
2022-12-08T21:30:41.838Z,-2.25
2022-12-08T21:33:08.757Z,-2.33
2022-12-08T21:35:35.428Z,-2.41
2022-12-08T21:38:01.932Z,-2.49
2022-12-08T21:40:28.594Z,-2.56
2022-12-08T21:42:55.136Z,-2.46
2022-12-08T21:45:21.987Z,-2.51
2022-12-08T21:47:50.091Z,-2.55
2022-12-08T21:50:18.172Z,-2.49
2022-12-08T21:52:46.860Z,-2.54
2022-12-08T21:55:14.837Z,-2.53
2022-12-08T21:57:42.403Z,-2.57
2022-12-08T22:00:13.349Z,-2.50
2022-12-08T22:02:40.077Z,-2.56
2022-12-08T22:05:07.131Z,-2.56
2022-12-08T22:07:33.697Z,-2.51
2022-12-08T22:10:00.303Z,-2.44
2022-12-08T22:12:27.082Z,-2.50
2022-12-08T22:14:53.539Z,-2.41
2022-12-08T22:17:20.303Z,-2.39
2022-12-08T22:19:46.845Z,-2.41
2022-12-08T22:22:13.637Z,-2.41
2022-12-08T22:24:39.902Z,-2.37
2022-12-08T22:27:06.351Z,-2.24
2022-12-08T22:29:32.903Z,-2.23
2022-12-08T22:31:59.327Z,-2.27
2022-12-08T22:34:25.801Z,-2.31
2022-12-08T22:36:52.212Z,-2.29
2022-12-08T22:39:18.756Z,-2.28
2022-12-08T22:41:45.067Z,-2.30
2022-12-08T22:44:12.335Z,-2.26
2022-12-08T22:46:38.861Z,-2.38
2022-12-08T22:49:05.227Z,-2.35
2022-12-08T22:51:31.713Z,-2.41
2022-12-08T22:53:58.128Z,-2.40
2022-12-08T22:56:24.643Z,-2.49
2022-12-08T22:58:51.310Z,-2.54
2022-12-08T23:01:26.633Z,-2.51
2022-12-08T23:03:53.422Z,-2.51
2022-12-08T23:06:20.390Z,-2.55
2022-12-08T23:08:47.286Z,-2.58
2022-12-08T23:11:13.883Z,-2.60
2022-12-08T23:13:40.750Z,-2.57
2022-12-08T23:16:11.749Z,-2.62
2022-12-08T23:18:42.542Z,-2.65
2022-12-08T23:21:13.569Z,-2.68
2022-12-08T23:23:40.178Z,-2.73
2022-12-08T23:26:25.769Z,-2.69
2022-12-08T23:28:52.764Z,-2.71
2022-12-08T23:31:20.122Z,-2.73
2022-12-08T23:33:47.094Z,-2.70
2022-12-08T23:36:15.124Z,-2.72
2022-12-08T23:38:42.239Z,-2.73
2022-12-08T23:41:11.360Z,-2.81
2022-12-08T23:43:42.497Z,-2.79
2022-12-08T23:46:09.109Z,-2.89
2022-12-08T23:48:35.681Z,-2.96
2022-12-08T23:51:02.143Z,-2.88
2022-12-08T23:53:30.326Z,-2.92
2022-12-08T23:56:02.347Z,-2.88
2022-12-08T23:58:30.837Z,-2.91
